Lake Fork, ID (83635)

5:47 PM MDT on August 25, 2016 (GMT -0600)
McCall | | Change Station

Elev 5020 ft 44.89 °N, 116.10 °W | Updated 56 minutes ago

Partly Cloudy
Partly Cloudy
74 °F
Feels Like 74 °F
N
9
Wind Variable Wind from WSW

Today
High -- | Low -- °F
--% Chance of Precip.
Yesterday
High -- | Low -- °F
Precip. -- in
Pressure 30.00 in
Visibility 10.0 miles
Clouds Few 10000 ft
Dew Point 30 °F
Humidity 20%
Rainfall 0.00 in
Snow Depth Not available.
6:58 AM 8:32 PM
Last Quarter, 41% visible
METAR KMYL 252251Z AUTO 24008KT 10SM FEW100 23/M01 A3012 RMK AO2 SLP158 T02331011 $
Pressure 30.00 in
Visibility 10.0 miles
Clouds Few 10000 ft
Dew Point 30 °F
Humidity 20%
Rainfall 0.00 in
Snow Depth Not available.
6:58 AM 8:32 PM
Last Quarter, 41% visible
METAR KMYL 252251Z AUTO 24008KT 10SM FEW100 23/M01 A3012 RMK AO2 SLP158 T02331011 $
A tropical disturbance pushing toward the Bahamas, is expected to develop into a tropical depression or storm, and will likely target Florida and the Gulf Coast this weekend into next week.

Right now, the disturbance remains a broad area of low pressure pushing through the Dominican Republic and Haiti, headed toward the southeast Bahamas. Rainfall totals over 3 inches (with locally higher amounts) are expected in HispaƱiola, particularly over elevated terrain.

10-Day Weather Forecast

Almanac

Astronomy

Aug. 25, 2016 Rise Set
Actual Time
Civil Twilight
Nautical Twilight
Astronomical Twilight
Moon
Length of Visible Light
Length of Day
Tomorrow will be .
, % of the Moon is Illuminated

Today's Extremes

State Highs State Lows

Community

WunderPhotos

Upload Photos

1,934,967 photos uploaded!

WunderBlog® & News

Nearby

Air Quality

  Air Quality AQ Index Pollutant
Not available.

Snow Depth

Station Depth Elevation

Earthquake Activity

City Distance Mag. Time & Date
Minimum magnitude displayed is 2.5.

Coastal Water Temperatures

Place Temperature

Stations

Nearby Weather Stations

Station Location Temp. Windchill Dew Point Humidity Wind Precip. Elev Updated Type
                   

Watches & Warnings

There are currently no watches in effect.